Time;durP1;ratioP1;P1;durP2;ratioP2;P2;SDS_P1;SDS_P2;PMS_P1;PMS_P2;Temp;Humidity;BMP_temperature;BMP_pressure;BME280_temperature;BME280_humidity;BME280_pressure;Samples;Min_cycle;Max_cycle;Signal;HPM_P1;HPM_P2
2022/07/23 00:01:42;;;;;;;4.90;2.42;;;23.60;62.80;;;;;;4891360;29;20143;-63
2022/07/23 00:04:09;;;;;;;5.57;2.65;;;23.60;62.40;;;;;;4888087;29;20051;-63
2022/07/23 00:06:36;;;;;;;5.55;2.83;;;23.60;62.20;;;;;;4889805;29;20059;-61
2022/07/23 00:09:04;;;;;;;4.68;2.67;;;23.60;62.00;;;;;;4885726;29;20564;-62
2022/07/23 00:11:31;;;;;;;7.85;3.00;;;23.50;61.80;;;;;;4891186;29;20056;-63
2022/07/23 00:13:58;;;;;;;12.00;3.25;;;23.60;61.70;;;;;;4875264;29;20045;-63
2022/07/23 00:16:25;;;;;;;7.50;3.55;;;23.60;61.70;;;;;;4889212;29;20059;-64
2022/07/23 00:18:52;;;;;;;5.97;3.50;;;23.60;61.70;;;;;;4869492;29;20045;-63
2022/07/23 00:21:19;;;;;;;6.93;3.35;;;23.50;61.90;;;;;;4890308;29;20056;-63
2022/07/23 00:23:46;;;;;;;5.30;3.25;;;23.50;62.10;;;;;;4891931;29;20148;-61
2022/07/23 00:26:15;;;;;;;6.38;3.33;;;23.50;62.40;;;;;;4885075;29;20474;-63
2022/07/23 00:28:42;;;;;;;4.80;2.65;;;23.50;62.20;;;;;;4901242;29;20079;-64
2022/07/23 00:31:09;;;;;;;5.85;3.00;;;23.50;62.00;;;;;;4884958;29;20147;-62
2022/07/23 00:33:36;;;;;;;5.40;2.88;;;23.50;62.00;;;;;;4878134;29;20044;-63
2022/07/23 00:36:03;;;;;;;3.83;2.42;;;23.40;62.00;;;;;;4902654;29;20494;-64
2022/07/23 00:38:30;;;;;;;5.93;2.78;;;23.40;62.00;;;;;;4888126;29;20063;-65
2022/07/23 00:40:57;;;;;;;4.38;2.42;;;23.30;62.10;;;;;;4887679;29;20045;-63
2022/07/23 00:43:26;;;;;;;6.32;3.03;;;23.30;62.10;;;;;;4890807;29;20072;-62
2022/07/23 00:45:53;;;;;;;4.63;2.90;;;23.30;62.10;;;;;;4853188;29;1105407;-61
2022/07/23 00:48:19;;;;;;;5.82;2.55;;;23.30;62.10;;;;;;4895143;29;20525;-62
2022/07/23 00:50:46;;;;;;;5.95;2.90;;;23.30;61.90;;;;;;4891177;29;20422;-62
2022/07/23 00:53:13;;;;;;;4.28;2.38;;;23.30;61.90;;;;;;4889270;29;20044;-63
2022/07/23 00:55:41;;;;;;;6.22;3.15;;;23.30;62.00;;;;;;4887645;29;20051;-62
2022/07/23 00:58:09;;;;;;;5.40;2.67;;;23.30;62.20;;;;;;4889473;29;20060;-63
2022/07/23 01:00:37;;;;;;;7.28;2.90;;;23.30;62.20;;;;;;4897061;29;20139;-63
2022/07/23 01:03:04;;;;;;;4.90;2.70;;;23.30;62.50;;;;;;4899983;29;20049;-63
2022/07/23 01:05:31;;;;;;;5.03;2.70;;;23.20;62.70;;;;;;4884856;29;20566;-64
2022/07/23 01:07:58;;;;;;;8.63;2.67;;;23.10;63.10;;;;;;4885488;29;20061;-62
2022/07/23 01:10:32;;;;;;;4.95;2.78;;;23.10;63.30;;;;;;4887380;29;20041;-62
2022/07/23 01:13:00;;;;;;;5.47;3.35;;;23.20;62.80;;;;;;4882692;29;20088;-62
2022/07/23 01:15:27;;;;;;;5.30;2.95;;;23.30;62.60;;;;;;4891718;29;20057;-62
2022/07/23 01:17:55;;;;;;;5.53;3.08;;;23.20;62.50;;;;;;4902078;29;20063;-63
2022/07/23 01:20:23;;;;;;;5.65;2.85;;;23.20;62.70;;;;;;4889666;29;20053;-62
2022/07/23 01:22:51;;;;;;;4.90;2.55;;;23.10;63.10;;;;;;4892955;29;20458;-62
2022/07/23 01:25:19;;;;;;;6.25;2.03;;;23.10;63.20;;;;;;4882411;29;20041;-62
2022/07/23 01:27:55;;;;;;;6.38;2.00;;;23.10;63.00;;;;;;4894182;29;20064;-64
2022/07/23 01:30:22;;;;;;;4.55;2.92;;;23.10;62.90;;;;;;4884823;29;20068;-61
2022/07/23 01:32:49;;;;;;;9.00;3.13;;;23.10;63.30;;;;;;4890445;29;20056;-61
2022/07/23 01:35:16;;;;;;;5.13;2.53;;;23.10;65.20;;;;;;4891444;29;20057;-63
2022/07/23 01:37:43;;;;;;;5.70;2.45;;;23.00;66.70;;;;;;4893233;29;20052;-61
2022/07/23 01:40:13;;;;;;;4.55;2.50;;;22.80;68.30;;;;;;4884932;29;20049;-62
2022/07/23 01:42:40;;;;;;;5.85;2.95;;;22.70;69.00;;;;;;4889452;29;20587;-63
2022/07/23 01:45:10;;;;;;;8.30;2.40;;;22.70;69.30;;;;;;4889787;29;20052;-63
2022/07/23 01:47:39;;;;;;;5.63;2.60;;;22.70;69.40;;;;;;4899684;29;20060;-62
2022/07/23 01:50:07;;;;;;;5.90;2.50;;;22.60;70.00;;;;;;4890376;29;20131;-64
2022/07/23 01:53:06;;;;;;;6.50;2.67;;;22.60;69.60;;;;;;4851901;29;20448;-65
2022/07/23 01:55:37;;;;;;;7.97;2.60;;;22.60;70.10;;;;;;4890635;29;20048;-64
2022/07/23 01:58:05;;;;;;;6.50;3.13;;;22.50;70.70;;;;;;4884336;29;20059;-62
2022/07/23 02:00:32;;;;;;;6.40;2.78;;;22.40;71.10;;;;;;4886130;29;20081;-62
2022/07/23 02:03:00;;;;;;;6.53;2.75;;;22.30;71.50;;;;;;4884061;29;20522;-62
2022/07/23 02:05:30;;;;;;;5.32;3.05;;;22.40;71.50;;;;;;4883518;29;20408;-61
2022/07/23 02:07:57;;;;;;;9.98;2.92;;;22.30;71.70;;;;;;4887528;29;21385;-61
2022/07/23 02:10:24;;;;;;;4.72;2.65;;;22.20;72.20;;;;;;4888888;29;20052;-62
2022/07/23 02:12:52;;;;;;;5.28;2.75;;;22.30;72.70;;;;;;4887170;29;20055;-62
2022/07/23 02:15:19;;;;;;;5.65;2.67;;;22.30;73.00;;;;;;4892219;29;20128;-62
2022/07/23 02:17:46;;;;;;;5.07;2.95;;;22.20;73.20;;;;;;4896985;29;20071;-61
2022/07/23 02:20:14;;;;;;;6.10;2.88;;;22.20;73.00;;;;;;4897128;29;20041;-62
2022/07/23 02:22:44;;;;;;;4.65;2.67;;;22.30;73.70;;;;;;4888605;29;20594;-61
2022/07/23 02:25:11;;;;;;;5.25;3.08;;;22.20;74.00;;;;;;4883889;29;20435;-63
2022/07/23 02:27:38;;;;;;;4.43;2.90;;;22.10;74.50;;;;;;4901377;29;20057;-63
2022/07/23 02:30:08;;;;;;;10.20;3.67;;;22.20;73.80;;;;;;4893927;29;20057;-63
2022/07/23 02:32:36;;;;;;;6.13;2.80;;;22.20;73.80;;;;;;4889356;29;20044;-63
2022/07/23 02:35:03;;;;;;;4.80;2.72;;;22.10;74.20;;;;;;4884208;29;20050;-64
2022/07/23 02:37:31;;;;;;;6.80;2.72;;;22.10;74.50;;;;;;4890189;29;20044;-63
2022/07/23 02:39:58;;;;;;;4.88;2.88;;;22.00;74.80;;;;;;4887133;29;20056;-62
2022/07/23 02:42:25;;;;;;;5.20;2.92;;;22.10;74.60;;;;;;4893706;29;20056;-61
2022/07/23 02:44:53;;;;;;;6.13;2.88;;;22.10;74.60;;;;;;4895764;29;20507;-63
2022/07/23 02:47:21;;;;;;;7.78;2.80;;;22.00;74.60;;;;;;4897894;29;20044;-62
2022/07/23 02:49:48;;;;;;;4.20;2.33;;;22.10;74.70;;;;;;4884183;29;20056;-62
2022/07/23 02:52:15;;;;;;;5.30;2.60;;;22.00;74.60;;;;;;4891269;29;20101;-62
2022/07/23 02:54:43;;;;;;;10.35;3.00;;;22.10;74.20;;;;;;4904515;29;20167;-62
2022/07/23 02:57:12;;;;;;;5.93;2.90;;;22.10;74.20;;;;;;4856019;29;20128;-61
2022/07/23 02:59:39;;;;;;;5.38;2.85;;;22.00;74.60;;;;;;4896455;29;20052;-63
2022/07/23 03:02:06;;;;;;;5.35;2.65;;;21.90;74.70;;;;;;4889835;29;20044;-62
2022/07/23 03:04:34;;;;;;;4.93;2.90;;;21.90;74.90;;;;;;4889377;29;20041;-63
2022/07/23 03:07:01;;;;;;;6.47;2.47;;;21.80;75.10;;;;;;4891252;29;20060;-63
2022/07/23 03:09:28;;;;;;;5.80;2.88;;;21.80;75.00;;;;;;4895266;29;20531;-62
2022/07/23 03:11:55;;;;;;;6.03;2.92;;;21.80;75.00;;;;;;4885159;29;20415;-63
2022/07/23 03:14:21;;;;;;;6.32;3.10;;;21.90;74.70;;;;;;4891827;29;20512;-63
2022/07/23 03:16:50;;;;;;;4.13;2.40;;;21.80;74.80;;;;;;4880424;29;20056;-64
2022/07/23 03:19:17;;;;;;;6.55;2.90;;;21.90;74.80;;;;;;4893936;29;20040;-63
2022/07/23 03:21:45;;;;;;;6.78;3.05;;;21.80;74.90;;;;;;4880494;29;20049;-64
2022/07/23 03:24:13;;;;;;;6.05;3.10;;;21.70;75.10;;;;;;4883366;29;20052;-63
2022/07/23 03:26:40;;;;;;;9.73;2.95;;;21.60;75.30;;;;;;4893131;29;20057;-63
2022/07/23 03:29:07;;;;;;;5.35;2.70;;;21.60;75.70;;;;;;4890739;29;20384;-63
2022/07/23 03:31:34;;;;;;;7.25;3.10;;;21.60;75.80;;;;;;4889486;29;20059;-65
2022/07/23 03:34:01;;;;;;;7.35;2.80;;;21.60;75.80;;;;;;4883559;29;20147;-64
2022/07/23 03:36:29;;;;;;;5.13;2.70;;;21.50;76.00;;;;;;4904690;29;20049;-62
2022/07/23 03:38:58;;;;;;;5.50;2.90;;;21.50;76.10;;;;;;4894684;29;20136;-63
2022/07/23 03:41:25;;;;;;;4.43;2.67;;;21.50;76.30;;;;;;4897512;29;20051;-62
2022/07/23 03:43:52;;;;;;;8.13;3.08;;;21.50;76.50;;;;;;4859721;29;20479;-63
2022/07/23 03:46:19;;;;;;;5.35;2.83;;;21.50;76.60;;;;;;4881365;29;20455;-62
2022/07/23 03:48:46;;;;;;;5.38;3.13;;;21.50;76.50;;;;;;4882921;29;20125;-64
2022/07/23 03:51:14;;;;;;;5.03;2.63;;;21.50;76.20;;;;;;4879262;29;20514;-62
2022/07/23 03:53:41;;;;;;;6.80;3.35;;;21.50;76.20;;;;;;4890976;29;20052;-63
2022/07/23 03:56:09;;;;;;;5.47;2.90;;;21.40;76.20;;;;;;4889379;29;20053;-66
2022/07/23 03:58:36;;;;;;;4.40;2.72;;;21.50;76.20;;;;;;4890094;29;20053;-61
2022/07/23 04:01:03;;;;;;;5.03;3.15;;;21.40;76.30;;;;;;4888802;29;20049;-63
2022/07/23 04:03:30;;;;;;;6.25;3.33;;;21.40;76.40;;;;;;4889436;29;20112;-63
2022/07/23 04:05:58;;;;;;;5.55;2.92;;;21.40;76.60;;;;;;4895299;29;20127;-63
2022/07/23 04:08:26;;;;;;;5.47;2.70;;;21.30;76.90;;;;;;4887808;29;20051;-62
2022/07/23 04:10:54;;;;;;;4.88;2.40;;;21.30;76.80;;;;;;4896996;29;20414;-64
2022/07/23 04:13:23;;;;;;;8.73;3.87;;;21.30;76.90;;;;;;4884809;29;20139;-64
2022/07/23 04:15:51;;;;;;;5.83;3.10;;;21.40;77.00;;;;;;4887056;29;20542;-61
2022/07/23 04:18:21;;;;;;;5.43;3.10;;;21.40;77.00;;;;;;4894746;29;20104;-62
2022/07/23 04:20:55;;;;;;;7.38;2.78;;;21.40;77.00;;;;;;4893564;29;20052;-62
2022/07/23 04:23:22;;;;;;;5.85;3.15;;;21.40;76.60;;;;;;4892157;29;20044;-62
2022/07/23 04:25:50;;;;;;;6.70;3.13;;;21.40;76.30;;;;;;4885765;29;20147;-62
2022/07/23 04:28:17;;;;;;;7.43;3.00;;;21.50;76.40;;;;;;4893151;29;20139;-63
2022/07/23 04:30:46;;;;;;;5.78;3.42;;;21.30;76.40;;;;;;4897585;29;20109;-64
2022/07/23 04:33:14;;;;;;;5.10;2.70;;;21.30;76.40;;;;;;4877005;29;21805;-64
2022/07/23 04:35:42;;;;;;;7.65;3.05;;;21.30;76.60;;;;;;4892712;29;20048;-63
2022/07/23 04:38:29;;;;;;;6.93;2.85;;;21.30;76.70;;;;;;4880931;29;20582;-62
2022/07/23 04:41:00;;;;;;;6.20;2.67;;;21.30;76.90;;;;;;4879795;29;20055;-63
2022/07/23 04:43:27;;;;;;;6.57;2.63;;;21.30;77.10;;;;;;4886523;29;20055;-63
2022/07/23 04:45:57;;;;;;;5.40;3.13;;;21.20;77.10;;;;;;4897408;29;20064;-63
2022/07/23 04:48:24;;;;;;;4.87;2.53;;;21.20;77.20;;;;;;4896999;29;20056;-62
2022/07/23 04:50:59;;;;;;;8.18;2.83;;;21.30;77.30;;;;;;4886694;29;21415;-62
2022/07/23 04:53:29;;;;;;;5.75;3.13;;;21.20;77.40;;;;;;4898323;29;20060;-64
2022/07/23 04:56:01;;;;;;;5.95;3.10;;;21.20;77.50;;;;;;4902605;29;20057;-65
2022/07/23 04:58:31;;;;;;;5.57;2.75;;;21.20;77.60;;;;;;4891723;29;20044;-64
2022/07/23 05:01:00;;;;;;;5.85;2.83;;;21.30;77.40;;;;;;4876661;29;20051;-66
2022/07/23 05:03:33;;;;;;;8.02;3.25;;;21.30;77.20;;;;;;4889092;29;20055;-63
2022/07/23 05:06:00;;;;;;;4.57;2.88;;;21.30;77.00;;;;;;4883615;29;20053;-63
2022/07/23 05:08:28;;;;;;;6.63;3.10;;;21.30;77.10;;;;;;4885171;29;20084;-63
2022/07/23 05:10:57;;;;;;;6.00;3.03;;;21.30;77.20;;;;;;4883791;29;20146;-63
2022/07/23 05:13:24;;;;;;;5.25;3.00;;;21.30;76.90;;;;;;4882066;29;20055;-66
2022/07/23 05:15:53;;;;;;;6.82;3.45;;;21.30;76.80;;;;;;4871983;29;20041;-64
2022/07/23 05:18:21;;;;;;;4.72;2.65;;;21.40;76.10;;;;;;4874816;29;20045;-62
2022/07/23 05:20:48;;;;;;;4.50;2.77;;;21.40;75.90;;;;;;4871240;29;20135;-64
2022/07/23 05:23:19;;;;;;;5.32;2.90;;;21.50;75.90;;;;;;4876821;29;20060;-65
2022/07/23 05:25:48;;;;;;;7.28;2.65;;;21.50;76.20;;;;;;4892367;29;20052;-62
2022/07/23 05:28:15;;;;;;;5.35;2.90;;;21.40;76.40;;;;;;4887233;29;20056;-63
2022/07/23 05:30:41;;;;;;;6.25;2.97;;;21.40;76.30;;;;;;4891093;29;20048;-63
2022/07/23 05:33:12;;;;;;;5.53;3.03;;;21.40;76.20;;;;;;4894068;29;20508;-63
2022/07/23 05:35:41;;;;;;;5.22;2.50;;;21.40;76.20;;;;;;4892998;29;20419;-64
2022/07/23 05:38:28;;;;;;;5.75;2.65;;;21.40;75.30;;;;;;4883700;29;20420;-62
2022/07/23 05:40:57;;;;;;;7.45;2.92;;;21.60;75.00;;;;;;4872558;29;20099;-61
2022/07/23 05:43:24;;;;;;;10.77;3.17;;;21.60;74.90;;;;;;4898975;29;20101;-63
2022/07/23 05:45:51;;;;;;;6.32;2.50;;;21.70;74.40;;;;;;4874700;29;20076;-63
2022/07/23 05:48:18;;;;;;;4.80;2.85;;;21.80;74.10;;;;;;4896243;29;20084;-62
2022/07/23 05:51:00;;;;;;;6.43;3.05;;;21.80;74.10;;;;;;4883821;29;20052;-64
2022/07/23 05:53:31;;;;;;;5.15;2.58;;;21.80;74.20;;;;;;4891700;29;20056;-63
2022/07/23 05:56:09;;;;;;;4.85;2.75;;;21.80;74.30;;;;;;4883284;29;20063;-64
2022/07/23 05:58:37;;;;;;;4.82;2.88;;;21.80;74.10;;;;;;4888785;29;20487;-64
2022/07/23 06:01:04;;;;;;;5.68;2.97;;;21.90;73.80;;;;;;4881311;29;20060;-63
2022/07/23 06:03:39;;;;;;;7.10;3.05;;;21.90;73.50;;;;;;4883725;29;20529;-63
2022/07/23 06:06:08;;;;;;;6.35;3.13;;;21.90;73.00;;;;;;4890331;29;20510;-64
2022/07/23 06:08:36;;;;;;;5.82;2.72;;;21.90;73.20;;;;;;4887232;29;20079;-64
2022/07/23 06:11:05;;;;;;;5.63;2.63;;;22.00;73.20;;;;;;4895083;29;20045;-64
2022/07/23 06:13:32;;;;;;;5.53;2.92;;;22.00;73.20;;;;;;4889560;29;21172;-65
2022/07/23 06:16:00;;;;;;;5.50;3.13;;;22.00;72.90;;;;;;4895731;29;20054;-63
2022/07/23 06:18:27;;;;;;;4.10;2.55;;;21.90;72.80;;;;;;4887575;29;20054;-64
2022/07/23 06:20:54;;;;;;;5.18;3.05;;;21.90;73.20;;;;;;4889526;29;20562;-64
2022/07/23 06:23:23;;;;;;;5.30;2.75;;;21.90;72.80;;;;;;4899182;29;20082;-63
2022/07/23 06:25:53;;;;;;;5.78;3.20;;;21.90;73.10;;;;;;4897963;29;20057;-63
2022/07/23 06:28:21;;;;;;;6.32;2.70;;;21.90;72.70;;;;;;4875849;29;20491;-64
2022/07/23 06:30:48;;;;;;;4.70;2.80;;;22.00;73.10;;;;;;4899591;29;20052;-62
2022/07/23 06:33:15;;;;;;;5.47;3.15;;;21.90;73.20;;;;;;4897095;29;20045;-64
2022/07/23 06:35:42;;;;;;;4.90;2.70;;;21.90;73.20;;;;;;4883854;29;20548;-65
2022/07/23 06:38:09;;;;;;;5.47;2.97;;;22.00;73.20;;;;;;4890312;29;20070;-63
2022/07/23 06:40:37;;;;;;;6.10;3.30;;;22.00;73.30;;;;;;4893818;29;20055;-65
2022/07/23 06:43:04;;;;;;;7.43;4.03;;;22.00;73.20;;;;;;4887194;29;20132;-64
2022/07/23 06:45:38;;;;;;;5.55;3.05;;;22.00;73.00;;;;;;4888331;29;20068;-65
2022/07/23 06:48:05;;;;;;;6.53;3.03;;;22.00;73.20;;;;;;4886995;29;20060;-62
2022/07/23 06:50:32;;;;;;;7.78;3.50;;;22.10;73.30;;;;;;4886462;29;20072;-64
2022/07/23 06:52:59;;;;;;;7.25;3.72;;;22.10;72.90;;;;;;4867276;29;20125;-63
2022/07/23 06:55:26;;;;;;;6.95;3.53;;;22.20;72.40;;;;;;4884995;29;20142;-64
2022/07/23 06:57:54;;;;;;;9.15;3.65;;;22.20;72.30;;;;;;4884477;29;20068;-65
2022/07/23 07:00:22;;;;;;;7.72;4.32;;;22.30;72.40;;;;;;4870756;29;20059;-66
2022/07/23 07:02:49;;;;;;;9.13;4.78;;;22.40;72.20;;;;;;4877968;29;20456;-65
2022/07/23 07:05:16;;;;;;;9.38;5.28;;;22.50;72.00;;;;;;4872179;29;20381;-62
2022/07/23 07:07:43;;;;;;;13.88;5.25;;;22.50;71.90;;;;;;4884414;29;20056;-63
2022/07/23 07:10:10;;;;;;;9.45;4.80;;;22.60;71.60;;;;;;4875013;29;20052;-64
2022/07/23 07:12:37;;;;;;;9.75;5.35;;;22.80;71.50;;;;;;4891267;29;20063;-63
2022/07/23 07:15:06;;;;;;;9.02;5.00;;;22.80;71.30;;;;;;4879711;29;20048;-64
2022/07/23 07:17:33;;;;;;;9.50;4.57;;;22.90;71.10;;;;;;4881011;29;20137;-64
2022/07/23 07:20:00;;;;;;;6.90;4.22;;;22.80;70.90;;;;;;4888634;29;20499;-65
2022/07/23 07:22:27;;;;;;;9.80;3.97;;;22.80;70.90;;;;;;4878291;29;20055;-63
2022/07/23 07:24:54;;;;;;;6.55;3.63;;;22.80;71.10;;;;;;4873115;29;20053;-65
2022/07/23 07:27:21;;;;;;;8.05;3.55;;;22.80;70.90;;;;;;4886228;29;20044;-63
2022/07/23 07:29:48;;;;;;;5.82;3.42;;;22.80;70.60;;;;;;4880045;29;20124;-62
2022/07/23 07:32:17;;;;;;;5.60;3.08;;;22.70;70.90;;;;;;4889874;29;20080;-63
2022/07/23 07:34:44;;;;;;;6.50;3.60;;;22.70;70.80;;;;;;4891542;29;20084;-64
2022/07/23 07:37:11;;;;;;;11.82;4.32;;;22.70;70.60;;;;;;4880478;29;20053;-63
2022/07/23 07:39:38;;;;;;;11.07;3.92;;;22.80;70.40;;;;;;4881171;29;20109;-63
2022/07/23 07:42:05;;;;;;;7.13;3.63;;;22.90;70.20;;;;;;4885005;29;20103;-61
2022/07/23 07:44:32;;;;;;;6.47;3.63;;;22.90;70.20;;;;;;4880241;29;20061;-63
2022/07/23 07:46:59;;;;;;;5.25;3.42;;;23.00;70.10;;;;;;4881739;29;20063;-65
2022/07/23 07:49:27;;;;;;;7.70;4.05;;;23.10;69.60;;;;;;4877205;29;20053;-64
2022/07/23 07:51:54;;;;;;;7.90;4.30;;;23.30;69.50;;;;;;4885300;29;20136;-63
2022/07/23 07:54:21;;;;;;;6.75;3.75;;;23.30;69.40;;;;;;4879053;29;20051;-64
2022/07/23 07:56:48;;;;;;;8.07;4.40;;;23.30;69.40;;;;;;4887432;29;20049;-63
2022/07/23 07:59:15;;;;;;;8.07;4.32;;;23.40;69.30;;;;;;4878635;29;20048;-64
2022/07/23 08:01:42;;;;;;;7.53;4.03;;;23.30;69.00;;;;;;4889130;29;20051;-62
2022/07/23 08:04:09;;;;;;;7.07;4.35;;;23.40;68.70;;;;;;4879600;29;20509;-62
2022/07/23 08:06:38;;;;;;;8.88;4.18;;;23.40;68.60;;;;;;4883873;29;20124;-62
2022/07/23 08:09:05;;;;;;;7.60;3.95;;;23.40;68.60;;;;;;4890531;29;20059;-63
2022/07/23 08:11:32;;;;;;;6.93;3.90;;;23.50;68.90;;;;;;4877266;29;20052;-63
2022/07/23 08:13:59;;;;;;;6.95;3.40;;;23.50;68.80;;;;;;4883103;29;20145;-64
2022/07/23 08:16:26;;;;;;;6.40;3.72;;;23.60;68.70;;;;;;4886156;29;20296;-64
2022/07/23 08:18:53;;;;;;;9.45;4.03;;;23.70;68.70;;;;;;4888472;29;20080;-63
2022/07/23 08:21:20;;;;;;;6.10;3.63;;;23.80;68.30;;;;;;4889409;29;20060;-64
2022/07/23 08:23:48;;;;;;;6.38;3.65;;;23.90;68.10;;;;;;4888094;29;20072;-63
2022/07/23 08:26:15;;;;;;;5.57;3.45;;;24.10;67.80;;;;;;4890925;29;20123;-64
2022/07/23 08:28:42;;;;;;;7.72;3.92;;;24.20;67.60;;;;;;4892230;29;20116;-66
2022/07/23 08:31:11;;;;;;;7.35;3.85;;;24.30;67.30;;;;;;4886823;29;20693;-64
2022/07/23 08:33:38;;;;;;;7.78;3.70;;;24.40;67.00;;;;;;4883577;29;20061;-64
2022/07/23 08:36:06;;;;;;;6.97;3.75;;;24.50;67.30;;;;;;4882260;29;20105;-62
2022/07/23 08:38:35;;;;;;;6.53;4.07;;;24.70;66.80;;;;;;4887322;29;20482;-65
2022/07/23 08:41:04;;;;;;;7.65;3.85;;;24.70;66.70;;;;;;4888051;29;20049;-65
2022/07/23 08:43:33;;;;;;;7.47;3.28;;;24.90;66.40;;;;;;4883461;29;20049;-63
2022/07/23 08:46:01;;;;;;;7.18;4.05;;;25.00;65.80;;;;;;4884576;29;20046;-64
2022/07/23 08:48:33;;;;;;;5.22;3.38;;;25.10;65.00;;;;;;4884471;29;20123;-62
2022/07/23 08:51:02;;;;;;;6.30;4.00;;;25.10;65.10;;;;;;4888479;29;20139;-64
2022/07/23 08:53:32;;;;;;;5.88;3.72;;;25.10;64.70;;;;;;4872488;29;20597;-63
2022/07/23 08:56:01;;;;;;;8.98;5.20;;;25.20;65.00;;;;;;4891873;29;20056;-64
2022/07/23 08:58:30;;;;;;;7.97;5.32;;;25.30;64.20;;;;;;4890649;29;20135;-64
2022/07/23 09:00:58;;;;;;;9.43;5.57;;;25.30;64.10;;;;;;4878778;29;20049;-63
2022/07/23 09:03:26;;;;;;;8.45;5.18;;;25.40;63.70;;;;;;4886501;29;20076;-64
2022/07/23 09:05:55;;;;;;;10.60;4.78;;;25.50;63.70;;;;;;4876956;29;20077;-63
2022/07/23 09:08:24;;;;;;;10.45;5.55;;;25.60;63.50;;;;;;4884993;29;20085;-63
2022/07/23 09:10:53;;;;;;;6.87;4.23;;;25.80;63.30;;;;;;4889415;29;20131;-63
2022/07/23 09:13:43;;;;;;;6.97;4.10;;;25.80;63.20;;;;;;4876514;29;20057;-63
2022/07/23 09:16:13;;;;;;;5.85;3.88;;;26.00;62.50;;;;;;4882863;29;20056;-63
2022/07/23 09:18:44;;;;;;;7.80;4.57;;;26.00;62.30;;;;;;4896220;29;20044;-64
2022/07/23 09:21:22;;;;;;;7.45;4.13;;;26.00;62.40;;;;;;4890914;29;20859;-65
2022/07/23 09:23:56;;;;;;;5.88;3.80;;;26.20;62.20;;;;;;4886796;29;20096;-62
2022/07/23 09:26:26;;;;;;;7.68;3.72;;;26.30;62.40;;;;;;4882694;29;20903;-65
2022/07/23 09:28:59;;;;;;;5.72;3.88;;;26.40;62.00;;;;;;4887664;29;20052;-64
2022/07/23 09:31:33;;;;;;;7.25;4.10;;;26.50;61.40;;;;;;4890536;29;20044;-62
2022/07/23 09:34:11;;;;;;;5.95;4.00;;;26.70;60.80;;;;;;4873345;29;20064;-63
2022/07/23 09:36:39;;;;;;;6.85;4.45;;;26.80;60.90;;;;;;4876125;29;20060;-64
2022/07/23 09:39:07;;;;;;;7.57;4.32;;;26.90;60.50;;;;;;4884093;29;20499;-64
2022/07/23 09:41:45;;;;;;;7.65;5.22;;;27.00;59.80;;;;;;4885937;29;20941;-63
2022/07/23 09:44:15;;;;;;;7.22;4.38;;;27.10;59.50;;;;;;4887272;29;20048;-64
2022/07/23 09:46:45;;;;;;;11.30;5.90;;;27.20;58.40;;;;;;4884155;29;20414;-64
2022/07/23 09:49:16;;;;;;;7.03;4.97;;;27.30;58.30;;;;;;4878674;29;20434;-64
2022/07/23 09:51:49;;;;;;;6.97;4.40;;;27.40;57.70;;;;;;4885428;29;20060;-64
2022/07/23 09:54:31;;;;;;;5.93;3.88;;;27.50;58.00;;;;;;4884726;29;20503;-66
2022/07/23 09:57:00;;;;;;;5.63;3.33;;;27.60;57.30;;;;;;4884610;29;20041;-65
2022/07/23 09:59:30;;;;;;;6.53;4.05;;;27.70;57.40;;;;;;4885513;29;20490;-65
2022/07/23 10:02:00;;;;;;;6.53;4.45;;;27.90;57.10;;;;;;4876937;29;20133;-64
2022/07/23 10:04:28;;;;;;;6.97;3.90;;;28.10;56.80;;;;;;4874006;29;20127;-63
2022/07/23 10:07:22;;;;;;;6.97;4.20;;;28.20;56.20;;;;;;4890549;29;20093;-64
2022/07/23 10:10:08;;;;;;;8.70;5.18;;;28.20;56.40;;;;;;4886679;29;20142;-66
2022/07/23 10:15:27;;;;;;;5.88;3.55;;;27.90;56.00;;;;;;4841295;29;20050;-65
2022/07/23 10:17:56;;;;;;;5.68;3.78;;;27.60;56.00;;;;;;4869368;29;20041;-64
2022/07/23 10:20:23;;;;;;;4.88;3.28;;;27.40;56.40;;;;;;4881277;29;20052;-65
2022/07/23 10:23:00;;;;;;;7.45;3.40;;;27.30;56.50;;;;;;4879750;29;20060;-64
2022/07/23 10:25:33;;;;;;;6.20;3.70;;;27.20;56.30;;;;;;4884908;29;20060;-63
2022/07/23 10:28:12;;;;;;;6.22;3.35;;;27.20;56.90;;;;;;4877950;29;20517;-65
2022/07/23 10:30:46;;;;;;;6.90;3.67;;;27.30;56.70;;;;;;4884545;29;20059;-63
2022/07/23 10:33:27;;;;;;;5.80;3.50;;;27.40;56.60;;;;;;4886378;29;20079;-64
2022/07/23 10:36:01;;;;;;;5.88;3.95;;;27.50;56.20;;;;;;4879868;29;20128;-65
2022/07/23 10:38:31;;;;;;;7.25;3.22;;;27.70;56.00;;;;;;4874688;29;20232;-65
2022/07/23 10:41:00;;;;;;;6.55;3.85;;;27.90;55.70;;;;;;4887481;29;20063;-63
2022/07/23 10:43:30;;;;;;;7.55;4.30;;;28.10;55.20;;;;;;4885817;29;20171;-61
2022/07/23 10:46:21;;;;;;;6.07;4.17;;;28.30;54.30;;;;;;4873041;29;20233;-65
2022/07/23 10:49:22;;;;;;;9.73;4.88;;;28.50;54.10;;;;;;4887862;29;20067;-64
2022/07/23 10:52:19;;;;;;;9.45;5.60;;;28.50;53.30;;;;;;4892967;29;20139;-63
2022/07/23 10:54:48;;;;;;;5.85;3.75;;;28.40;53.00;;;;;;4874861;29;20067;-64
2022/07/23 10:57:16;;;;;;;6.95;4.05;;;28.30;53.00;;;;;;4883146;29;20048;-63
2022/07/23 11:00:15;;;;;;;5.70;3.40;;;28.10;52.60;;;;;;4884586;29;20052;-63
2022/07/23 11:02:45;;;;;;;5.28;3.22;;;28.00;52.70;;;;;;4878518;29;20602;-62
2022/07/23 11:05:15;;;;;;;5.35;3.67;;;27.90;52.60;;;;;;4876948;29;20124;-63
2022/07/23 11:08:19;;;;;;;5.88;3.50;;;27.80;52.70;;;;;;4885416;29;20052;-65
2022/07/23 11:10:48;;;;;;;8.00;3.50;;;27.70;53.20;;;;;;4887067;29;20057;-63
2022/07/23 11:13:45;;;;;;;7.55;3.75;;;27.70;53.10;;;;;;4887764;29;20056;-61
2022/07/23 11:16:35;;;;;;;5.18;3.28;;;27.60;53.10;;;;;;4851417;29;20115;-63
2022/07/23 11:19:07;;;;;;;6.13;3.30;;;27.60;53.30;;;;;;4867903;29;20183;-63
2022/07/23 11:21:59;;;;;;;5.40;3.17;;;27.60;53.60;;;;;;4884819;29;20044;-63
2022/07/23 11:24:27;;;;;;;5.40;3.17;;;27.60;53.70;;;;;;4861967;29;20133;-63
2022/07/23 11:27:02;;;;;;;4.40;3.03;;;27.70;53.40;;;;;;4883279;29;20792;-62
2022/07/23 11:29:40;;;;;;;5.38;3.15;;;27.70;53.30;;;;;;4881236;29;20851;-65
2022/07/23 11:32:09;;;;;;;5.45;3.42;;;27.70;53.20;;;;;;4889175;29;20053;-63
2022/07/23 11:34:40;;;;;;;5.32;3.33;;;27.70;53.50;;;;;;4882786;29;20060;-65
2022/07/23 11:37:10;;;;;;;5.35;3.35;;;27.70;53.10;;;;;;4885351;29;20502;-62
2022/07/23 11:39:38;;;;;;;5.70;3.35;;;27.60;52.80;;;;;;4880789;29;20071;-63
2022/07/23 11:42:07;;;;;;;5.45;3.25;;;27.60;52.90;;;;;;4885167;29;20671;-63
2022/07/23 11:44:36;;;;;;;5.47;3.38;;;27.50;53.10;;;;;;4876696;29;20112;-62
2022/07/23 11:47:05;;;;;;;;;;;27.60;53.10;;;;;;4877565;29;20471;-62
2022/07/23 11:49:32;;;;;;;5.23;3.00;;;27.70;53.00;;;;;;4890960;29;19928;-63
2022/07/23 11:52:06;;;;;;;6.15;3.42;;;27.90;52.40;;;;;;4888638;29;20060;-64
2022/07/23 11:54:36;;;;;;;8.00;3.67;;;28.00;52.70;;;;;;4894137;29;20064;-64
2022/07/23 11:57:04;;;;;;;6.65;3.17;;;28.00;52.50;;;;;;4877595;29;20130;-63
2022/07/23 11:59:33;;;;;;;5.00;3.10;;;28.00;52.00;;;;;;4894156;29;20063;-62
2022/07/23 12:02:05;;;;;;;4.95;3.08;;;27.90;52.00;;;;;;4879442;29;20059;-64
2022/07/23 12:04:39;;;;;;;6.88;3.75;;;28.10;51.80;;;;;;4891572;29;20078;-64
2022/07/23 12:07:23;;;;;;;8.43;4.00;;;28.30;50.50;;;;;;4884595;29;20063;-62
2022/07/23 12:09:51;;;;;;;5.40;3.33;;;28.30;49.80;;;;;;4890627;29;20135;-63
2022/07/23 12:12:18;;;;;;;6.80;3.40;;;28.50;50.00;;;;;;4877419;29;20057;-62
2022/07/23 12:14:49;;;;;;;8.52;3.20;;;28.60;49.60;;;;;;4887482;29;20048;-62
2022/07/23 12:17:16;;;;;;;5.53;3.08;;;28.80;48.90;;;;;;4882917;29;20058;-64
2022/07/23 12:19:44;;;;;;;4.25;2.67;;;28.80;48.60;;;;;;4892211;29;20122;-64
2022/07/23 12:22:11;;;;;;;5.45;3.22;;;29.00;48.40;;;;;;4899335;29;20052;-63
2022/07/23 12:24:55;;;;;;;5.03;3.42;;;29.10;48.40;;;;;;4894606;29;20095;-63
2022/07/23 12:27:23;;;;;;;4.63;2.65;;;29.10;48.10;;;;;;4895281;29;20049;-64
2022/07/23 12:29:50;;;;;;;5.45;3.30;;;29.30;47.90;;;;;;4890611;29;20057;-63
2022/07/23 12:32:26;;;;;;;4.40;3.00;;;29.30;47.70;;;;;;4883381;29;20053;-63
2022/07/23 12:35:05;;;;;;;5.72;2.97;;;29.40;46.50;;;;;;4877799;29;20176;-64
2022/07/23 12:37:34;;;;;;;4.25;2.55;;;29.50;45.70;;;;;;4895842;29;20076;-62
2022/07/23 12:40:15;;;;;;;;;;;29.60;43.80;;;;;;4900528;29;20059;-61
2022/07/23 12:42:44;;;;;;;3.85;2.67;;;29.60;43.10;;;;;;4900550;29;19927;-65
2022/07/23 12:45:12;;;;;;;;;;;29.60;43.80;;;;;;4894366;29;20053;-62
2022/07/23 12:47:59;;;;;;;5.10;2.10;;;29.70;44.30;;;;;;4893414;29;19959;-62
2022/07/23 12:50:37;;;;;;;4.97;3.15;;;29.70;44.50;;;;;;4895245;29;20140;-62
2022/07/23 12:53:06;;;;;;;4.38;2.33;;;29.80;44.70;;;;;;4896656;29;20064;-63
2022/07/23 12:55:33;;;;;;;;;;;29.80;44.90;;;;;;4891907;29;20045;-63
2022/07/23 12:58:10;;;;;;;3.40;2.28;;;29.80;43.80;;;;;;4886029;29;19934;-62
2022/07/23 13:00:59;;;;;;;5.53;2.88;;;29.80;43.00;;;;;;4890740;29;20140;-62
2022/07/23 13:03:31;;;;;;;5.72;2.55;;;29.80;43.00;;;;;;4897869;29;20049;-63
2022/07/23 13:06:00;;;;;;;6.65;2.50;;;29.70;43.60;;;;;;4882089;29;20059;-63